Mitiwanga, Ohio
Current Conditions -  °F | °C
As of 7:13 AM on Friday 21 Nov 2014 (Local Time) from KPCW Reporting Station
Few Clouds Few Clouds  
Wind Chill:   Ceiling: Unl
Heat Index: 19°   Visibility: 10mi
Dew Point: 12°   Wind: 8mph
Humidity: 74%   Direction: 240°WSW
Pressure: 30.39"   Gusts: NA
Location:  41.3748°N, 82.5554°W
Report Text: KPCW 211213Z AUTO 24007KT 10SM FEW049 M07/M11 A3039 RMK AO2 $
Loading
Personal Weather Stations






























Interactive Weather Map New forecast layout! Learn more

10-Day Weather Forecast

Advertisements
Track Severe Weather on mobile